createdAt,value
2023-03-04T00:02:42.258Z,76.20
2023-03-04T00:12:49.642Z,75.70
2023-03-04T00:22:55.619Z,65.40
2023-03-04T00:33:00.903Z,54.50
2023-03-04T00:43:08.290Z,62.90
2023-03-04T00:53:15.566Z,59.90
2023-03-04T01:03:23.197Z,83.40
2023-03-04T01:13:30.396Z,74.10
2023-03-04T01:23:37.611Z,75.90
2023-03-04T01:33:45.219Z,63.10
2023-03-04T01:43:53.066Z,70.60
2023-03-04T01:54:00.220Z,68.60
2023-03-04T02:04:08.144Z,63.50
2023-03-04T02:14:16.752Z,98.90
2023-03-04T02:24:30.238Z,86.90
2023-03-04T02:34:38.748Z,60.70
2023-03-04T02:44:49.492Z,52.90
2023-03-04T02:54:56.501Z,49.50
2023-03-04T03:05:04.003Z,81.70
2023-03-04T03:15:12.552Z,74.20
2023-03-04T03:25:18.511Z,70.80
2023-03-04T03:35:25.585Z,62.40
2023-03-04T03:45:32.903Z,53.40
2023-03-04T03:55:40.336Z,79.20
2023-03-04T04:05:47.471Z,69.30
2023-03-04T04:15:54.325Z,66.90
2023-03-04T04:26:01.609Z,51.60
2023-03-04T04:36:11.326Z,48.80
2023-03-04T04:46:19.243Z,47.80
2023-03-04T04:56:28.139Z,71.10
2023-03-04T05:06:35.234Z,47.20
2023-03-04T05:16:42.837Z,41.10
2023-03-04T05:26:50.106Z,36.00
2023-03-04T05:36:57.195Z,42.30
2023-03-04T05:47:04.326Z,44.20
2023-03-04T05:57:10.593Z,36.10
2023-03-04T06:07:17.756Z,33.10
2023-03-04T06:17:24.969Z,42.40
2023-03-04T06:27:32.271Z,38.20
2023-03-04T06:37:39.374Z,35.20
2023-03-04T06:47:46.848Z,28.90
2023-03-04T06:57:54.523Z,35.10
2023-03-04T07:08:01.596Z,35.40
2023-03-04T07:18:08.969Z,36.90
2023-03-04T07:28:16.212Z,41.20
2023-03-04T07:38:23.231Z,49.50
2023-03-04T07:48:30.683Z,48.40
2023-03-04T07:58:37.798Z,43.20
2023-03-04T08:08:45.438Z,49.20
2023-03-04T08:18:54.115Z,48.30
2023-03-04T08:29:05.764Z,75.40
2023-03-04T08:39:15.549Z,45.70
2023-03-04T08:49:22.660Z,31.30
2023-03-04T08:59:29.714Z,50.30
2023-03-04T09:09:37.458Z,49.70
2023-03-04T09:19:44.777Z,36.10
2023-03-04T09:29:51.455Z,31.60
2023-03-04T09:39:58.957Z,42.20
2023-03-04T09:50:05.475Z,33.10
2023-03-04T10:00:18.194Z,22.50
2023-03-04T10:10:23.414Z,20.20
2023-03-04T10:20:40.483Z,24.40
2023-03-04T10:30:46.521Z,46.70
2023-03-04T10:40:53.666Z,31.60
2023-03-04T10:51:10.757Z,27.00
2023-03-04T11:01:25.465Z,31.00
2023-03-04T11:11:31.253Z,37.20
2023-03-04T11:21:40.893Z,40.40
2023-03-04T11:31:46.168Z,38.30
2023-03-04T11:41:56.320Z,41.10
2023-03-04T11:52:01.125Z,31.00
2023-03-04T12:02:16.862Z,34.80
2023-03-04T12:12:25.552Z,71.70
2023-03-04T12:22:36.117Z,38.10
2023-03-04T12:32:41.064Z,65.90
2023-03-04T12:42:50.978Z,30.10
2023-03-04T12:52:56.122Z,30.20
2023-03-04T13:03:04.384Z,42.00
2023-03-04T13:13:26.087Z,45.20
2023-03-04T13:23:33.994Z,25.60
2023-03-04T13:33:46.484Z,27.40
2023-03-04T13:43:54.783Z,14.10
2023-03-04T13:54:08.319Z,27.70
2023-03-04T14:04:20.747Z,32.40
2023-03-04T14:14:30.041Z,22.10
2023-03-04T14:24:37.076Z,28.50
2023-03-04T14:34:44.484Z,73.90
2023-03-04T14:44:53.462Z,56.90
2023-03-04T14:55:02.163Z,23.00
2023-03-04T15:05:16.417Z,18.70
2023-03-04T15:15:43.843Z,28.40
2023-03-04T15:25:53.076Z,20.30
2023-03-04T15:36:00.771Z,13.30
2023-03-04T15:46:06.234Z,11.90
2023-03-04T15:56:16.809Z,16.20
2023-03-04T16:06:26.172Z,19.10
2023-03-04T16:16:33.408Z,19.60
2023-03-04T16:26:40.470Z,11.90
2023-03-04T16:36:47.974Z,22.80
2023-03-04T16:46:55.188Z,20.90
2023-03-04T16:57:02.736Z,19.00
2023-03-04T17:07:09.908Z,15.70
2023-03-04T17:17:18.518Z,36.90
2023-03-04T17:27:25.909Z,16.20
2023-03-04T17:37:33.176Z,14.20
2023-03-04T17:47:41.056Z,16.10
2023-03-04T17:57:48.323Z,16.20
2023-03-04T18:07:54.168Z,13.80
2023-03-04T18:18:01.233Z,12.80
2023-03-04T18:28:07.649Z,26.20
2023-03-04T18:38:14.815Z,24.50
2023-03-04T18:48:22.007Z,20.50
2023-03-04T18:58:28.476Z,44.60
2023-03-04T19:08:36.259Z,52.20
2023-03-04T19:18:43.868Z,43.80
2023-03-04T19:28:51.112Z,53.90
2023-03-04T19:38:59.083Z,37.70
2023-03-04T19:49:06.772Z,19.20
2023-03-04T19:59:14.186Z,22.70
2023-03-04T20:09:23.410Z,20.00
2023-03-04T20:19:31.778Z,29.10
2023-03-04T20:29:38.768Z,29.10
2023-03-04T20:39:46.681Z,16.20
2023-03-04T20:49:53.068Z,23.10
2023-03-04T21:00:00.407Z,15.60
2023-03-04T21:10:06.818Z,26.10
2023-03-04T21:20:17.075Z,21.90
2023-03-04T21:30:24.450Z,22.40
2023-03-04T21:40:31.510Z,14.90
2023-03-04T21:50:39.931Z,23.40
2023-03-04T22:00:49.750Z,13.70
2023-03-04T22:10:56.857Z,17.60
2023-03-04T22:21:01.793Z,17.10
2023-03-04T22:31:14.752Z,23.90
2023-03-04T22:41:22.784Z,39.60
2023-03-04T22:51:30.800Z,45.10
2023-03-04T23:01:38.398Z,52.90
2023-03-04T23:11:44.104Z,39.70
2023-03-04T23:21:51.250Z,31.30
2023-03-04T23:31:58.542Z,22.90
2023-03-04T23:42:05.944Z,16.20
2023-03-04T23:52:12.972Z,22.30
